Time;durP1;ratioP1;P1;durP2;ratioP2;P2;SDS_P1;SDS_P2;PMS_P1;PMS_P2;Temp;Humidity;BMP_temperature;BMP_pressure;BME280_temperature;BME280_humidity;BME280_pressure;Samples;Min_cycle;Max_cycle;Signal;HPM_P1;HPM_P2
2022/07/05 00:01:14;;;;;;;2.40;2.00;;;;;;;22.60;52.22;98377.50;106176;1281;25362;-78
2022/07/05 00:03:40;;;;;;;4.00;2.10;;;;;;;22.62;52.14;98375.99;106398;1280;137676;-78
2022/07/05 00:06:06;;;;;;;2.00;1.90;;;;;;;22.63;52.12;98375.35;105948;1283;24227;-78
2022/07/05 00:08:33;;;;;;;4.00;2.00;;;;;;;22.62;52.25;98377.44;106067;1281;137584;-79
2022/07/05 00:10:59;;;;;;;2.70;2.20;;;;;;;22.62;52.61;98378.77;106588;1281;22773;-80
2022/07/05 00:13:25;;;;;;;4.10;2.30;;;;;;;22.61;52.73;98380.25;106002;1280;23148;-78
2022/07/05 00:15:52;;;;;;;2.30;1.90;;;;;;;22.59;52.71;98378.64;106037;1281;25261;-77
2022/07/05 00:18:18;;;;;;;5.60;2.60;;;;;;;22.55;52.60;98375.64;106155;1280;24393;-78
2022/07/05 00:20:45;;;;;;;2.80;2.50;;;;;;;22.53;53.10;98376.71;106788;1281;137764;-84
2022/07/05 00:23:12;;;;;;;3.50;2.50;;;;;;;22.50;53.99;98375.38;107011;1278;22566;-86
2022/07/05 00:25:39;;;;;;;4.30;2.50;;;;;;;22.47;54.38;98374.75;105845;1284;137676;-83
2022/07/05 00:28:06;;;;;;;2.80;2.50;;;;;;;22.42;54.67;98380.02;106146;1281;24237;-82
2022/07/05 00:30:32;;;;;;;3.50;3.00;;;;;;;22.37;54.76;98386.77;106326;1281;24279;-82
2022/07/05 00:32:58;;;;;;;3.90;3.00;;;;;;;22.30;55.01;98391.03;106259;1280;137805;-82
2022/07/05 00:35:25;;;;;;;3.10;2.70;;;;;;;22.21;55.45;98393.48;106163;1281;24312;-83
2022/07/05 00:37:54;;;;;;;2.90;2.50;;;;;;;22.12;55.84;98399.19;106353;1280;137745;-80
2022/07/05 00:40:20;;;;;;;4.10;2.60;;;;;;;22.01;56.63;98401.73;106484;1281;23051;-82
2022/07/05 00:42:48;;;;;;;2.90;2.70;;;;;;;21.92;57.32;98410.64;106345;1281;22577;-81
2022/07/05 00:45:14;;;;;;;3.70;2.70;;;;;;;21.80;57.86;98410.23;105968;1281;137698;-80
2022/07/05 00:47:40;;;;;;;6.10;3.20;;;;;;;21.68;58.50;98416.77;106599;1280;22557;-80
2022/07/05 00:50:07;;;;;;;3.40;3.00;;;;;;;21.60;59.13;98422.45;106134;1281;137679;-81
2022/07/05 00:52:34;;;;;;;4.10;3.30;;;;;;;21.54;59.55;98427.23;106184;1281;24237;-80
2022/07/05 00:55:11;;;;;;;5.00;3.50;;;;;;;21.50;59.87;98428.86;106812;1278;25245;-81
2022/07/05 00:57:39;;;;;;;4.20;3.50;;;;;;;21.49;60.17;98428.62;106503;1280;137653;-81
2022/07/05 01:00:06;;;;;;;3.90;3.60;;;;;;;21.48;60.46;98425.20;106426;1278;22615;-81
2022/07/05 01:02:35;;;;;;;4.20;3.80;;;;;;;21.47;61.03;98426.31;106171;1281;137538;-84
2022/07/05 01:05:06;;;;;;;4.90;3.90;;;;;;;21.43;61.66;98421.92;107038;1281;22590;-81
2022/07/05 01:07:34;;;;;;;5.10;3.70;;;;;;;21.41;61.88;98419.89;106403;1277;138188;-81
2022/07/05 01:10:16;;;;;;;4.50;4.10;;;;;;;21.38;62.23;98419.03;106289;1281;27604;-82
2022/07/05 01:12:42;;;;;;;4.40;4.00;;;;;;;21.37;62.21;98415.66;106321;1281;22570;-82
2022/07/05 01:15:11;;;;;;;5.80;4.10;;;;;;;21.38;62.36;98409.88;106354;1281;138910;-81
2022/07/05 01:17:38;;;;;;;7.40;4.50;;;;;;;21.38;62.72;98407.98;106665;1280;24225;-81
2022/07/05 01:20:07;;;;;;;6.50;4.40;;;;;;;21.38;63.02;98404.78;106412;1281;137954;-83
2022/07/05 01:22:56;;;;;;;5.70;5.10;;;;;;;21.36;63.23;98401.38;106384;1281;22594;-83
2022/07/05 01:25:25;;;;;;;5.50;4.90;;;;;;;21.36;63.21;98402.45;106175;1281;24262;-83
2022/07/05 01:27:57;;;;;;;5.90;4.60;;;;;;;21.35;63.36;98400.98;106469;1281;23288;-83
2022/07/05 01:30:24;;;;;;;7.00;4.80;;;;;;;21.35;63.51;98400.97;106297;1281;22603;-83
2022/07/05 01:32:51;;;;;;;5.90;4.20;;;;;;;21.34;63.63;98397.55;106332;1280;137956;-83
2022/07/05 01:35:23;;;;;;;5.30;4.70;;;;;;;21.35;63.60;98395.38;106331;1280;22628;-83
2022/07/05 01:37:51;;;;;;;4.90;4.50;;;;;;;21.38;63.86;98389.83;106122;1281;137683;-83
2022/07/05 01:40:19;;;;;;;6.00;4.30;;;;;;;21.39;63.76;98386.64;106639;1280;22611;-82
2022/07/05 01:42:46;;;;;;;6.90;4.40;;;;;;;21.39;63.76;98381.55;106435;1281;22565;-82
2022/07/05 01:45:38;;;;;;;7.00;4.30;;;;;;;21.38;63.81;98381.39;106206;1281;137773;-82
2022/07/05 01:48:02;;;;;;;5.30;4.60;;;;;;;21.40;63.55;98380.18;106155;1281;22720;-83
2022/07/05 01:50:29;;;;;;;4.70;3.90;;;;;;;21.41;63.54;98378.16;106299;1280;137666;-83
2022/07/05 01:53:03;;;;;;;7.00;4.10;;;;;;;21.43;63.47;98380.26;106195;1281;22863;-83
2022/07/05 01:55:30;;;;;;;6.10;4.40;;;;;;;21.44;63.49;98378.68;106412;1281;137936;-83
2022/07/05 01:57:58;;;;;;;8.40;4.60;;;;;;;21.47;63.52;98378.42;106189;1281;25349;-83
2022/07/05 02:00:25;;;;;;;12.80;5.00;;;;;;;21.49;64.09;98375.42;106305;1281;22558;-84
2022/07/05 02:02:52;;;;;;;5.00;4.50;;;;;;;21.50;64.85;98377.94;106097;1281;137435;-84
2022/07/05 02:05:18;;;;;;;4.40;4.00;;;;;;;21.50;64.80;98378.50;106470;1279;25637;-83
2022/07/05 02:07:49;;;;;;;4.90;4.50;;;;;;;21.49;64.89;98385.02;106215;1280;137742;-83
2022/07/05 02:10:16;;;;;;;9.20;5.30;;;;;;;21.45;65.58;98385.98;106483;1280;22694;-83
2022/07/05 02:12:43;;;;;;;5.00;4.40;;;;;;;21.39;65.72;98383.51;106527;1280;23784;-83
2022/07/05 02:15:13;;;;;;;5.40;5.00;;;;;;;21.37;65.72;98378.42;106247;1279;138862;-83
2022/07/05 02:17:39;;;;;;;5.40;4.30;;;;;;;21.35;65.95;98375.27;106422;1281;22715;-83
2022/07/05 02:20:07;;;;;;;5.10;4.40;;;;;;;21.33;65.99;98373.42;106337;1281;137991;-84
2022/07/05 02:22:34;;;;;;;4.70;4.30;;;;;;;21.36;66.55;98374.75;106602;1281;22848;-84
2022/07/05 02:25:02;;;;;;;5.70;4.20;;;;;;;21.39;66.03;98379.75;106196;1281;25355;-83
2022/07/05 02:27:28;;;;;;;4.10;3.70;;;;;;;21.42;65.73;98384.33;106188;1280;138030;-84
2022/07/05 02:29:55;;;;;;;4.30;3.70;;;;;;;21.44;65.31;98390.92;106199;1280;22566;-83
2022/07/05 02:32:32;;;;;;;4.00;3.60;;;;;;;21.48;65.57;98401.05;106294;1278;137618;-84
2022/07/05 02:34:59;;;;;;;4.70;3.80;;;;;;;21.52;65.36;98411.14;106509;1280;23086;-83
2022/07/05 02:37:27;;;;;;;4.90;4.40;;;;;;;21.55;65.53;98417.54;106250;1279;22619;-87
2022/07/05 02:43:03;;;;;;;7.70;4.20;;;;;;;21.53;67.26;98422.30;104085;1287;22734;-91
2022/07/05 02:45:30;;;;;;;5.80;4.40;;;;;;;21.48;68.06;98428.47;105386;1287;138328;-89
2022/07/05 02:48:00;;;;;;;4.70;3.70;;;;;;;21.45;68.42;98430.42;105608;1287;22557;-88
2022/07/05 02:50:27;;;;;;;6.00;4.50;;;;;;;21.42;68.52;98428.10;105464;1285;139035;-87
2022/07/05 02:52:54;;;;;;;6.00;5.00;;;;;;;21.36;69.53;98424.39;105575;1285;25406;-85
2022/07/05 02:55:20;;;;;;;6.90;4.70;;;;;;;21.31;69.97;98426.97;105832;1285;22830;-87
2022/07/05 02:57:48;;;;;;;5.80;5.20;;;;;;;21.20;70.38;98425.56;105584;1285;137347;-85
2022/07/05 03:00:17;;;;;;;5.10;4.60;;;;;;;21.02;70.82;98417.83;105622;1286;22582;-84
2022/07/05 03:03:01;;;;;;;6.10;4.90;;;;;;;20.85;71.48;98421.83;105479;1287;138823;-83
2022/07/05 03:05:32;;;;;;;5.80;4.50;;;;;;;20.72;72.16;98418.98;105589;1285;22603;-82
2022/07/05 03:08:02;;;;;;;5.60;5.10;;;;;;;20.65;72.89;98419.32;105974;1285;138433;-83
2022/07/05 03:10:32;;;;;;;5.90;5.40;;;;;;;20.58;73.37;98416.08;105727;1284;24231;-82
2022/07/05 03:12:59;;;;;;;7.40;4.70;;;;;;;20.55;74.27;98420.02;105821;1284;22593;-82
2022/07/05 03:15:26;;;;;;;5.30;4.80;;;;;;;20.53;74.70;98423.27;106004;1284;138567;-82
2022/07/05 03:17:53;;;;;;;4.90;4.50;;;;;;;20.52;75.34;98426.11;105774;1286;22669;-82
2022/07/05 03:20:20;;;;;;;6.10;5.30;;;;;;;20.54;75.53;98424.41;105953;1287;138738;-82
2022/07/05 03:22:47;;;;;;;6.00;4.90;;;;;;;20.56;76.09;98431.29;105925;1287;23339;-82
2022/07/05 03:25:24;;;;;;;7.10;5.50;;;;;;;20.55;76.11;98435.13;105855;1285;22743;-81
2022/07/05 03:27:52;;;;;;;5.40;5.00;;;;;;;20.54;76.37;98442.80;105580;1284;137654;-81
2022/07/05 03:30:18;;;;;;;5.40;4.60;;;;;;;20.50;76.50;98452.95;105888;1284;23157;-81
2022/07/05 03:32:48;;;;;;;5.80;4.40;;;;;;;20.49;76.56;98458.83;106114;1284;138518;-82
2022/07/05 03:35:14;;;;;;;6.00;5.20;;;;;;;20.55;76.63;98470.05;105965;1283;22569;-81
2022/07/05 03:37:42;;;;;;;7.60;5.90;;;;;;;20.57;76.45;98481.09;105686;1287;137790;-82
2022/07/05 03:40:09;;;;;;;6.40;5.80;;;;;;;20.58;76.55;98483.69;105711;1285;22584;-81
2022/07/05 03:42:39;;;;;;;5.90;5.40;;;;;;;20.58;76.41;98474.95;105892;1286;22628;-82
2022/07/05 03:45:09;;;;;;;5.90;5.30;;;;;;;20.58;76.49;98472.36;105799;1285;138204;-82
2022/07/05 03:47:36;;;;;;;5.50;5.10;;;;;;;20.61;76.76;98476.40;105978;1284;22582;-83
2022/07/05 03:50:06;;;;;;;6.20;5.50;;;;;;;20.67;76.97;98477.21;105965;1285;138481;-84
2022/07/05 03:52:35;;;;;;;8.10;5.60;;;;;;;20.73;76.78;98482.68;105961;1284;22719;-87
2022/07/05 03:55:03;;;;;;;7.30;6.40;;;;;;;20.77;76.48;98480.64;105887;1285;22567;-86
2022/07/05 03:57:31;;;;;;;6.50;5.80;;;;;;;20.74;76.46;98477.05;105764;1286;138058;-86
2022/07/05 03:59:58;;;;;;;6.70;5.40;;;;;;;20.72;76.63;98469.68;105823;1285;22586;-86
2022/07/05 04:02:24;;;;;;;5.80;5.20;;;;;;;20.68;76.43;98464.40;105711;1287;138902;-85
2022/07/05 04:04:51;;;;;;;6.90;4.80;;;;;;;20.62;76.56;98458.77;105919;1286;22569;-85
2022/07/05 04:07:19;;;;;;;6.80;5.70;;;;;;;20.61;77.26;98458.91;105785;1286;22626;-85
2022/07/05 04:09:48;;;;;;;6.70;6.10;;;;;;;20.59;77.49;98460.42;105538;1284;137480;-84
2022/07/05 04:12:16;;;;;;;6.00;5.40;;;;;;;20.57;77.82;98459.83;105917;1284;24352;-85
2022/07/05 04:14:42;;;;;;;5.60;5.00;;;;;;;20.61;77.72;98465.71;105617;1286;138277;-84
2022/07/05 04:17:09;;;;;;;5.50;5.10;;;;;;;20.64;77.97;98466.39;106254;1284;22754;-83
2022/07/05 04:19:35;;;;;;;7.00;5.70;;;;;;;20.69;78.11;98476.46;105797;1285;137595;-83
2022/07/05 04:22:03;;;;;;;6.90;5.30;;;;;;;20.71;78.00;98479.41;105867;1285;22585;-84
2022/07/05 04:24:31;;;;;;;6.40;5.30;;;;;;;20.66;77.64;98487.47;105915;1285;22579;-83
2022/07/05 04:26:58;;;;;;;5.60;5.10;;;;;;;20.62;77.83;98491.38;105752;1285;138373;-84
2022/07/05 04:29:25;;;;;;;5.30;4.30;;;;;;;20.59;77.73;98486.44;105555;1285;22569;-84
2022/07/05 04:31:51;;;;;;;5.50;4.90;;;;;;;20.58;77.73;98490.16;105855;1284;138526;-84
2022/07/05 04:34:18;;;;;;;6.00;5.40;;;;;;;20.58;77.96;98489.18;105765;1284;22589;-86
2022/07/05 04:36:45;;;;;;;5.60;5.20;;;;;;;20.57;78.11;98494.29;105912;1284;22551;-86
2022/07/05 04:39:12;;;;;;;6.80;5.20;;;;;;;20.56;78.41;98495.91;105084;1286;540632;-87
2022/07/05 04:41:43;;;;;;;5.70;4.90;;;;;;;20.58;78.15;98492.89;105306;1287;25419;-87
2022/07/05 04:44:10;;;;;;;5.50;4.30;;;;;;;20.56;78.02;98491.55;105482;1285;138605;-87
2022/07/05 04:46:37;;;;;;;5.40;4.90;;;;;;;20.59;78.28;98495.18;105491;1287;25352;-87
2022/07/05 04:49:04;;;;;;;5.90;5.00;;;;;;;20.62;78.43;98499.08;105615;1284;25218;-88
2022/07/05 04:51:30;;;;;;;5.50;4.80;;;;;;;20.64;78.40;98503.47;105093;1285;137474;-88
2022/07/05 04:53:57;;;;;;;5.20;4.40;;;;;;;20.67;78.44;98509.48;105503;1285;25514;-87
2022/07/05 04:56:23;;;;;;;6.30;4.50;;;;;;;20.67;78.07;98501.12;105234;1286;138408;-87
2022/07/05 04:58:49;;;;;;;4.90;4.40;;;;;;;20.65;77.78;98497.56;105433;1284;22544;-86
2022/07/05 05:01:16;;;;;;;5.50;4.30;;;;;;;20.61;77.71;98489.46;105597;1285;22569;-85
2022/07/05 05:03:42;;;;;;;4.90;4.40;;;;;;;20.53;77.48;98490.50;105673;1284;138013;-84
2022/07/05 05:06:08;;;;;;;8.00;4.80;;;;;;;20.44;77.37;98489.20;105976;1284;22557;-85
2022/07/05 05:08:34;;;;;;;5.30;4.70;;;;;;;20.40;78.14;98480.05;105805;1284;138330;-86
2022/07/05 05:11:01;;;;;;;5.00;4.50;;;;;;;20.39;78.43;98480.18;105546;1286;22579;-87
2022/07/05 05:13:27;;;;;;;5.70;4.50;;;;;;;20.39;78.35;98476.91;105344;1285;24373;-88
2022/07/05 05:15:54;;;;;;;5.40;4.30;;;;;;;20.37;78.41;98480.23;105548;1285;23028;-89
2022/07/05 05:18:24;;;;;;;6.20;5.50;;;;;;;20.30;78.07;98480.80;105654;1285;23878;-90
2022/07/05 05:20:50;;;;;;;8.60;5.20;;;;;;;20.24;78.25;98484.76;105597;1284;137599;-89
2022/07/05 05:23:16;;;;;;;9.10;5.30;;;;;;;20.15;78.69;98490.57;105661;1286;26509;-90
2022/07/05 05:25:43;;;;;;;5.40;4.00;;;;;;;20.11;79.08;98490.92;105434;1284;138361;-89
2022/07/05 05:28:09;;;;;;;5.20;3.80;;;;;;;20.15;78.88;98493.23;106216;1284;22554;-87
2022/07/05 05:30:36;;;;;;;5.80;4.30;;;;;;;20.14;78.72;98492.64;105631;1285;24235;-88
2022/07/05 05:33:02;;;;;;;7.80;4.70;;;;;;;20.14;79.32;98487.11;105441;1286;137933;-88
2022/07/05 05:35:28;;;;;;;4.90;3.80;;;;;;;20.15;79.30;98481.61;106163;1285;25489;-88
2022/07/05 05:37:55;;;;;;;5.40;4.10;;;;;;;20.14;79.24;98480.58;105699;1283;138208;-88
2022/07/05 05:40:24;;;;;;;5.70;4.20;;;;;;;20.10;79.00;98476.63;105742;1284;25522;-88
2022/07/05 05:42:51;;;;;;;7.10;4.70;;;;;;;20.02;78.72;98478.00;106009;1285;22705;-89
2022/07/05 05:45:19;;;;;;;5.90;4.80;;;;;;;19.98;78.91;98482.88;106035;1285;138147;-88
2022/07/05 05:47:50;;;;;;;6.50;4.70;;;;;;;19.94;78.67;98481.15;105971;1286;22579;-87
2022/07/05 05:50:25;;;;;;;4.90;4.40;;;;;;;19.83;78.71;98485.66;105754;1285;137615;-87
2022/07/05 05:52:52;;;;;;;5.50;4.00;;;;;;;19.70;79.07;98485.94;105984;1285;25264;-88
2022/07/05 05:55:19;;;;;;;4.80;4.20;;;;;;;19.61;79.56;98481.83;105522;1285;25623;-87
2022/07/05 05:57:48;;;;;;;5.00;4.40;;;;;;;19.57;79.88;98485.45;105973;1286;138116;-88
2022/07/05 06:00:15;;;;;;;5.10;4.60;;;;;;;19.56;80.16;98490.50;105137;1285;24218;-88
2022/07/05 06:02:42;;;;;;;4.80;4.40;;;;;;;19.57;80.15;98497.50;105448;1285;136371;-84
2022/07/05 06:05:10;;;;;;;6.70;5.00;;;;;;;19.59;80.29;98506.73;106153;1284;23352;-90
2022/07/05 06:07:48;;;;;;;6.40;4.80;;;;;;;19.64;80.45;98514.21;105847;1284;137958;-91
2022/07/05 06:10:22;;;;;;;9.60;4.40;;;;;;;19.71;80.78;98523.71;105759;1287;24239;-88
2022/07/05 06:12:50;;;;;;;5.00;3.80;;;;;;;19.76;81.00;98533.16;105671;1287;25793;-86
2022/07/05 06:15:18;;;;;;;5.80;4.40;;;;;;;19.81;81.24;98542.90;106174;1284;138348;-86
2022/07/05 06:17:44;;;;;;;5.20;4.70;;;;;;;19.85;81.23;98552.61;106005;1285;22857;-85
2022/07/05 06:20:13;;;;;;;5.40;4.90;;;;;;;19.89;81.11;98563.98;106095;1286;138833;-86
2022/07/05 06:22:40;;;;;;;6.30;5.10;;;;;;;19.94;81.12;98571.48;105951;1284;22576;-86
2022/07/05 06:25:07;;;;;;;10.20;5.30;;;;;;;19.96;81.21;98586.08;106166;1286;23937;-83
2022/07/05 06:27:42;;;;;;;9.00;5.40;;;;;;;20.00;81.16;98605.27;106306;1283;138498;-87
2022/07/05 06:30:09;;;;;;;8.60;5.40;;;;;;;20.01;81.33;98617.08;105813;1285;25394;-81
2022/07/05 06:32:37;;;;;;;7.30;4.90;;;;;;;19.97;81.03;98623.89;106436;1285;138129;-82
2022/07/05 06:35:03;;;;;;;10.90;6.00;;;;;;;19.93;81.05;98631.30;105934;1285;22725;-83
2022/07/05 06:37:41;;;;;;;9.50;6.00;;;;;;;19.89;81.38;98636.91;105880;1285;137873;-81
2022/07/05 06:40:09;;;;;;;10.80;6.50;;;;;;;19.84;81.45;98639.80;106138;1285;25249;-83
2022/07/05 06:42:35;;;;;;;7.90;6.10;;;;;;;19.79;81.65;98641.44;106236;1284;22584;-83
2022/07/05 06:45:03;;;;;;;10.30;5.80;;;;;;;19.77;81.85;98642.58;106295;1284;138334;-83
2022/07/05 06:47:30;;;;;;;8.30;5.90;;;;;;;19.77;81.86;98640.05;106444;1284;22582;-83
2022/07/05 06:49:58;;;;;;;9.40;6.40;;;;;;;19.75;81.99;98646.25;106251;1284;138358;-81
2022/07/05 06:52:24;;;;;;;8.80;6.70;;;;;;;19.74;82.09;98648.47;106081;1284;22588;-83
2022/07/05 06:54:51;;;;;;;9.20;7.00;;;;;;;19.73;82.36;98647.70;106088;1284;22582;-83
2022/07/05 06:57:21;;;;;;;8.80;6.90;;;;;;;19.74;81.96;98639.52;105862;1285;137862;-82
2022/07/05 06:59:48;;;;;;;12.20;6.50;;;;;;;19.67;81.62;98638.00;105959;1285;22579;-81
2022/07/05 07:02:14;;;;;;;11.20;6.80;;;;;;;19.69;82.09;98651.63;105712;1286;139691;-81
2022/07/05 07:04:41;;;;;;;10.70;5.50;;;;;;;19.73;82.46;98659.37;105960;1285;22560;-81
2022/07/05 07:10:01;;;;;;;10.40;7.50;;;;;;;19.77;82.36;98652.90;105716;1285;22710;-82
2022/07/05 07:12:29;;;;;;;10.00;7.90;;;;;;;19.70;82.37;98647.05;106417;1284;25493;-83
2022/07/05 07:14:56;;;;;;;11.30;7.50;;;;;;;19.65;82.52;98647.36;106312;1283;137791;-83
2022/07/05 07:17:24;;;;;;;10.20;8.10;;;;;;;19.61;82.76;98646.60;106162;1284;23598;-83
2022/07/05 07:19:51;;;;;;;9.60;7.60;;;;;;;19.59;82.94;98643.77;106035;1284;138903;-83
2022/07/05 07:22:17;;;;;;;13.70;8.10;;;;;;;19.58;82.91;98636.55;105951;1284;22600;-85
2022/07/05 07:24:44;;;;;;;12.90;7.60;;;;;;;19.53;83.07;98634.69;105813;1285;22569;-85
2022/07/05 07:27:10;;;;;;;11.60;8.60;;;;;;;19.43;83.34;98631.68;105822;1285;137813;-83
2022/07/05 07:29:39;;;;;;;10.90;8.30;;;;;;;19.38;83.66;98629.39;105759;1285;22620;-83
2022/07/05 07:32:07;;;;;;;10.20;6.30;;;;;;;19.33;83.95;98621.10;105843;1285;139135;-81
2022/07/05 07:34:36;;;;;;;9.70;7.20;;;;;;;19.31;84.25;98617.83;105759;1284;24276;-81
2022/07/05 07:37:04;;;;;;;10.30;8.00;;;;;;;19.26;84.46;98616.14;105986;1284;22713;-84
2022/07/05 07:39:33;;;;;;;12.40;8.10;;;;;;;19.24;85.18;98617.10;105444;1284;138482;-82
2022/07/05 07:41:59;;;;;;;13.70;8.30;;;;;;;19.29;85.81;98614.21;106134;1284;22735;-75
2022/07/05 07:44:26;;;;;;;10.90;7.70;;;;;;;19.40;85.87;98610.14;105145;1285;138810;-80
2022/07/05 07:46:52;;;;;;;10.00;7.60;;;;;;;19.57;85.96;98610.96;105486;1285;25415;-82
2022/07/05 07:49:18;;;;;;;9.70;6.70;;;;;;;19.69;85.55;98611.34;105636;1285;23345;-80
2022/07/05 07:51:45;;;;;;;7.80;7.00;;;;;;;19.76;85.08;98607.06;105476;1284;137428;-79
2022/07/05 07:54:11;;;;;;;8.90;6.90;;;;;;;19.84;85.14;98605.75;106879;1284;22562;-80
2022/07/05 07:56:38;;;;;;;6.70;6.00;;;;;;;19.94;84.85;98604.76;106009;1284;137782;-80
2022/07/05 07:59:04;;;;;;;7.00;5.70;;;;;;;20.04;84.38;98597.06;106456;1284;25280;-81
2022/07/05 08:01:31;;;;;;;7.00;5.80;;;;;;;20.15;84.18;98598.19;105996;1285;138884;-80
2022/07/05 08:03:58;;;;;;;6.10;5.40;;;;;;;20.23;83.84;98589.13;106192;1285;24330;-80
2022/07/05 08:06:24;;;;;;;6.50;5.90;;;;;;;20.32;83.71;98586.69;106760;1284;22628;-80
2022/07/05 08:08:50;;;;;;;9.00;6.10;;;;;;;20.39;83.46;98590.94;106477;1285;137575;-80
2022/07/05 08:11:16;;;;;;;7.70;5.10;;;;;;;20.46;83.07;98586.04;106368;1285;23235;-80
2022/07/05 08:13:43;;;;;;;6.90;5.40;;;;;;;20.50;82.44;98584.63;106587;1284;138468;-80
2022/07/05 08:16:10;;;;;;;5.80;5.30;;;;;;;20.57;82.59;98586.27;106292;1284;22588;-80
2022/07/05 08:24:02;;;;;;;6.00;5.30;;;;;;;20.60;82.16;98589.58;106176;1286;25558;-81
2022/07/05 08:26:33;;;;;;;6.70;5.40;;;;;;;20.57;81.82;98586.86;106261;1287;138871;-81
2022/07/05 08:29:03;;;;;;;7.60;5.80;;;;;;;20.55;81.72;98588.17;105846;1285;22582;-81
2022/07/05 08:31:32;;;;;;;6.80;6.20;;;;;;;20.56;81.66;98587.05;105991;1284;137865;-81
2022/07/05 08:33:59;;;;;;;7.20;6.50;;;;;;;20.55;81.66;98589.83;106493;1283;22646;-81
2022/07/05 08:36:25;;;;;;;8.30;6.00;;;;;;;20.54;81.50;98591.80;106600;1284;24512;-82
2022/07/05 08:38:52;;;;;;;6.50;5.40;;;;;;;20.52;81.66;98596.21;105963;1284;138332;-82
2022/07/05 08:41:20;;;;;;;7.00;6.00;;;;;;;20.47;81.62;98597.95;106586;1284;22690;-82
2022/07/05 08:43:49;;;;;;;6.80;6.10;;;;;;;20.45;82.01;98595.17;106547;1285;138628;-82
2022/07/05 08:46:17;;;;;;;8.20;7.00;;;;;;;20.47;82.09;98595.60;106416;1285;22557;-82
2022/07/05 08:48:47;;;;;;;8.20;6.80;;;;;;;20.47;82.05;98594.42;106250;1284;26936;-82
2022/07/05 08:51:16;;;;;;;7.30;6.50;;;;;;;20.50;81.92;98597.36;106213;1285;137620;-78
2022/07/05 08:53:44;;;;;;;8.10;7.30;;;;;;;20.53;82.87;98596.91;105866;1285;24064;-85
2022/07/05 08:56:13;;;;;;;12.00;7.80;;;;;;;20.54;82.04;98596.39;105418;1285;138645;-84
2022/07/05 08:58:40;;;;;;;10.60;8.00;;;;;;;20.53;81.66;98584.86;105629;1285;22663;-83
2022/07/05 09:01:10;;;;;;;12.00;9.10;;;;;;;20.45;81.39;98586.04;105932;1285;22586;-83
2022/07/05 09:03:48;;;;;;;9.40;7.40;;;;;;;20.38;81.47;98582.98;106000;1285;138983;-86
2022/07/05 09:06:21;;;;;;;10.30;8.60;;;;;;;20.36;81.84;98582.38;105724;1284;23465;-85
2022/07/05 09:08:50;;;;;;;8.60;7.70;;;;;;;20.38;82.51;98582.60;105732;1284;138960;-77
2022/07/05 09:11:19;;;;;;;9.10;7.60;;;;;;;20.41;82.30;98574.90;105594;1284;22859;-80
2022/07/05 09:13:50;;;;;;;7.10;6.40;;;;;;;20.37;81.56;98576.98;105714;1284;139915;-79
2022/07/05 09:16:17;;;;;;;9.30;7.50;;;;;;;20.22;81.16;98573.45;106205;1285;22585;-80
2022/07/05 09:18:51;;;;;;;10.80;8.70;;;;;;;20.13;81.92;98571.67;105485;1287;22583;-80
2022/07/05 09:21:25;;;;;;;14.30;7.30;;;;;;;20.08;82.01;98575.68;105779;1285;138197;-80
2022/07/05 09:24:01;;;;;;;9.20;6.90;;;;;;;20.03;82.59;98569.98;105017;1286;25632;-80
2022/07/05 09:26:44;;;;;;;8.10;7.10;;;;;;;20.08;83.51;98563.36;106266;1284;138248;-79
2022/07/05 09:29:16;;;;;;;7.90;7.10;;;;;;;20.15;83.36;98564.55;105789;1286;22759;-80
2022/07/05 09:31:46;;;;;;;9.90;7.20;;;;;;;20.23;83.09;98570.60;105799;1285;138616;-81
2022/07/05 09:34:15;;;;;;;9.50;8.50;;;;;;;20.32;82.93;98572.63;105871;1286;25345;-82
2022/07/05 09:36:47;;;;;;;9.80;7.90;;;;;;;20.42;82.72;98575.70;106223;1285;22587;-82
2022/07/05 09:39:14;;;;;;;9.50;7.50;;;;;;;20.50;82.47;98578.21;105726;1285;138070;-82
2022/07/05 09:41:40;;;;;;;10.10;7.60;;;;;;;20.59;82.63;98580.86;106298;1285;22604;-82
2022/07/05 09:44:07;;;;;;;11.60;8.10;;;;;;;20.67;82.61;98584.92;105917;1284;138486;-82
2022/07/05 09:46:33;;;;;;;10.30;7.90;;;;;;;20.75;82.18;98580.67;105863;1284;22565;-82
2022/07/05 09:48:59;;;;;;;9.00;8.20;;;;;;;20.80;81.83;98580.61;106083;1284;26640;-82
2022/07/05 09:51:26;;;;;;;11.00;8.60;;;;;;;20.84;81.32;98579.19;105753;1284;137805;-83
2022/07/05 09:53:55;;;;;;;10.80;8.80;;;;;;;20.86;81.40;98580.60;106038;1284;24483;-82
2022/07/05 09:56:26;;;;;;;8.50;7.70;;;;;;;20.84;81.00;98584.27;105437;1285;138917;-84
2022/07/05 09:58:52;;;;;;;16.80;9.00;;;;;;;20.83;81.08;98586.45;105681;1285;24623;-84
2022/07/05 10:01:29;;;;;;;9.70;8.00;;;;;;;20.82;81.20;98591.14;105789;1285;24238;-85
2022/07/05 10:04:01;;;;;;;10.60;8.50;;;;;;;20.83;81.56;98589.67;105687;1286;22737;-85
2022/07/05 10:06:31;;;;;;;10.50;8.90;;;;;;;20.84;81.64;98583.77;106132;1285;30554;-85
2022/07/05 10:08:59;;;;;;;11.60;9.80;;;;;;;20.87;81.30;98586.05;105793;1284;138221;-85
2022/07/05 10:11:30;;;;;;;12.80;9.50;;;;;;;20.90;81.11;98585.16;105871;1284;25277;-86
2022/07/05 10:13:58;;;;;;;12.90;10.00;;;;;;;20.93;81.05;98580.66;105810;1284;138452;-85
2022/07/05 10:16:25;;;;;;;10.10;9.10;;;;;;;20.95;81.17;98583.39;105507;1285;25317;-85
2022/07/05 10:18:54;;;;;;;12.40;9.20;;;;;;;20.99;81.06;98583.69;105939;1285;23321;-85
2022/07/05 10:21:21;;;;;;;11.40;10.10;;;;;;;21.02;80.72;98583.45;106000;1285;138212;-85
2022/07/05 10:23:53;;;;;;;10.70;9.70;;;;;;;21.04;80.42;98584.79;106170;1285;23408;-84
2022/07/05 10:26:21;;;;;;;12.30;10.00;;;;;;;20.98;79.72;98585.43;106204;1284;138447;-82
2022/07/05 10:28:52;;;;;;;11.20;10.20;;;;;;;20.84;79.43;98577.20;106101;1284;23434;-80
2022/07/05 10:31:19;;;;;;;10.20;9.20;;;;;;;20.74;80.26;98577.02;105755;1284;22571;-79
2022/07/05 10:33:45;;;;;;;11.20;9.50;;;;;;;20.71;80.65;98581.09;106335;1284;138332;-80
2022/07/05 10:36:13;;;;;;;11.00;8.70;;;;;;;20.71;81.15;98582.79;106034;1284;26246;-80
2022/07/05 10:38:42;;;;;;;9.60;8.40;;;;;;;20.71;80.80;98578.75;106413;1285;138435;-80
2022/07/05 10:41:13;;;;;;;11.90;8.70;;;;;;;20.61;80.86;98572.41;106123;1285;23368;-80
2022/07/05 10:43:40;;;;;;;11.80;9.50;;;;;;;20.52;81.72;98567.55;105850;1285;139142;-80
2022/07/05 10:46:08;;;;;;;14.00;9.10;;;;;;;20.46;82.19;98571.86;105846;1285;24247;-81
2022/07/05 10:48:35;;;;;;;9.70;8.10;;;;;;;20.43;82.58;98571.94;105781;1286;25542;-81
2022/07/05 10:51:08;;;;;;;11.40;8.70;;;;;;;20.41;82.54;98573.52;106082;1283;138254;-80
2022/07/05 10:53:37;;;;;;;8.60;7.70;;;;;;;20.42;82.89;98573.92;105440;1284;22798;-80
2022/07/05 10:56:03;;;;;;;8.40;7.50;;;;;;;20.50;83.04;98572.13;105782;1284;138344;-79
2022/07/05 10:58:46;;;;;;;9.40;7.60;;;;;;;20.56;82.58;98566.21;105990;1285;24264;-79
2022/07/05 11:01:12;;;;;;;8.70;7.70;;;;;;;20.58;82.50;98562.56;105774;1285;24429;-79
2022/07/05 11:03:42;;;;;;;7.60;6.80;;;;;;;20.56;82.84;98562.05;105781;1285;138422;-79
2022/07/05 11:06:18;;;;;;;8.20;6.70;;;;;;;20.54;82.63;98559.16;105919;1284;22668;-80
2022/07/05 11:11:42;;;;;;;10.30;7.70;;;;;;;20.57;82.63;98557.50;105828;1284;23489;-80
2022/07/05 11:14:22;;;;;;;7.90;7.00;;;;;;;20.64;83.03;98559.45;106061;1284;137929;-80
2022/07/05 11:17:08;;;;;;;9.20;7.00;;;;;;;20.82;82.95;98559.20;106125;1284;24394;-81
2022/07/05 11:20:09;;;;;;;6.30;5.70;;;;;;;21.01;82.13;98563.16;105768;1285;138502;-81
2022/07/05 11:22:38;;;;;;;7.70;6.40;;;;;;;21.22;81.58;98561.52;105835;1285;22672;-82
2022/07/05 11:25:06;;;;;;;7.80;6.80;;;;;;;21.42;81.37;98562.15;105958;1285;22575;-83
2022/07/05 11:27:33;;;;;;;6.50;5.70;;;;;;;21.62;80.89;98563.69;105631;1284;138148;-82
2022/07/05 11:30:00;;;;;;;6.80;5.60;;;;;;;21.76;80.02;98561.17;105966;1284;24241;-82
2022/07/05 11:32:29;;;;;;;6.40;5.60;;;;;;;21.89;79.58;98561.39;106237;1284;139126;-82
2022/07/05 11:35:12;;;;;;;6.50;5.90;;;;;;;21.96;78.32;98555.15;105835;1284;22683;-82
2022/07/05 11:38:08;;;;;;;6.60;5.90;;;;;;;21.91;77.88;98556.92;106288;1285;138013;-82
2022/07/05 11:40:37;;;;;;;7.70;6.70;;;;;;;21.91;78.17;98553.63;106127;1285;22596;-82